Cargèse

FR-0639 · South Corsica, Corsica, France

METAR history FR-0639 · Cargèse

Below you see METARs of the last few days. Select a year to browse through older METARs, from the year 2007 onwards.

July 15, 2024

Time Code Weather Temp. Visibility Ceiling Wind METAR/SPECI
03:00
V
20 °C 10 km+ - 060° 060° 5 kt METAR LFKJ 150100Z AUTO 06005KT CAVOK 20/14 Q1013 NOSIG
02:30
V
20 °C 10 km+ - 050° 050° 5 kt METAR LFKJ 150030Z AUTO 05005KT CAVOK 20/15 Q1013 NOSIG
02:00
V
20 °C 10 km+ - 050° 050° 6 kt METAR LFKJ 150000Z AUTO 05006KT CAVOK 20/15 Q1013 NOSIG
01:30
V
21 °C 10 km+ - 050° 050° 5 kt METAR LFKJ 142330Z AUTO 05005KT CAVOK 21/15 Q1013 NOSIG
01:00
V
21 °C 10 km+ - 050° 050° 5 kt METAR LFKJ 142300Z AUTO 05005KT CAVOK 21/16 Q1013 NOSIG
00:30
V
22 °C 10 km+ - 040° 040° 1 kt METAR LFKJ 142230Z AUTO 04001KT CAVOK 22/16 Q1013 NOSIG
00:00
V
23 °C 10 km+ - 040° 040° 5 kt METAR LFKJ 142200Z AUTO 04005KT CAVOK 23/16 Q1013 NOSIG

July 14, 2024

Time Code Weather Temp. Visibility Ceiling Wind METAR/SPECI
23:30
V
24 °C 10 km+ - 030° 030° 3 kt METAR LFKJ 142130Z AUTO 03003KT CAVOK 24/16 Q1013 NOSIG
23:00
V
24 °C 10 km+ - 050° 050° 6 kt METAR LFKJ 142100Z AUTO 05006KT CAVOK 24/17 Q1013 NOSIG
22:30
V
24 °C 10 km+ - 050° 050° 3 kt METAR LFKJ 142030Z AUTO 05003KT CAVOK 24/18 Q1013 NOSIG
22:00
V
25 °C 10 km+ - 110° 110° 3 kt METAR LFKJ 142000Z AUTO 11003KT 050V160 CAVOK 25/19 Q1013 NOSIG
21:30
V
26 °C 10 km+ - Var Var 2 kt METAR LFKJ 141930Z AUTO VRB02KT CAVOK 26/21 Q1012 NOSIG
21:00
V
26 °C 10 km+ - 190° 190° 5 kt METAR LFKJ 141900Z AUTO 19005KT CAVOK 26/20 Q1012 NOSIG
20:30
V
28 °C 10 km+ - 190° 190° 7 kt METAR LFKJ 141830Z AUTO 19007KT CAVOK 28/19 Q1012 NOSIG
20:00
V
28 °C 10 km+ - 200° 200° 8 kt METAR LFKJ 141800Z AUTO 20008KT CAVOK 28/18 Q1012 NOSIG
19:30
V
29 °C 10 km+ - 200° 200° 8 kt METAR LFKJ 141730Z AUTO 20008KT CAVOK 29/20 Q1012 NOSIG
19:00
V
30 °C 10 km+ - 200° 200° 9 kt METAR LFKJ 141700Z AUTO 20009KT CAVOK 30/18 Q1012 NOSIG
18:30
V
31 °C 10 km+ - 200° 200° 9 kt METAR LFKJ 141630Z AUTO 20009KT CAVOK 31/19 Q1012 NOSIG
18:00
V
30 °C 10 km+ - 200° 200° 9 kt METAR LFKJ 141600Z AUTO 20009KT CAVOK 30/19 Q1012 NOSIG
17:30
V
31 °C 10 km+ - 190° 190° 9 kt METAR LFKJ 141530Z AUTO 19009KT CAVOK 31/20 Q1012 NOSIG
17:00
V
31 °C 10 km+ - 190° 190° 10 kt METAR LFKJ 141500Z AUTO 19010KT CAVOK 31/20 Q1012 NOSIG
16:30
V
30 °C 10 km+ - 190° 190° 13 kt METAR LFKJ 141430Z AUTO 19013KT CAVOK 30/20 Q1012 NOSIG
16:00
V
30 °C 10 km+ - 190° 190° 11 kt METAR LFKJ 141400Z AUTO 19011KT CAVOK 30/20 Q1012 NOSIG
15:30
V
30 °C 10 km+ - 190° 190° 13 kt METAR LFKJ 141330Z AUTO 19013KT CAVOK 30/20 Q1012 NOSIG
15:00
V
30 °C 10 km+ - 190° 190° 12 kt METAR LFKJ 141300Z AUTO 19012KT CAVOK 30/20 Q1012 NOSIG
14:30
V
30 °C 10 km+ - 200° 200° 13 kt METAR LFKJ 141230Z AUTO 20013KT CAVOK 30/21 Q1013 NOSIG
14:00
V
30 °C 10 km+ - 200° 200° 13 kt METAR LFKJ 141200Z AUTO 20013KT CAVOK 30/19 Q1012 NOSIG
13:30
V
30 °C 10 km+ - 210° 210° 11 kt METAR LFKJ 141130Z AUTO 21011KT CAVOK 30/16 Q1012 NOSIG
13:00
V
30 °C 10 km+ - 220° 220° 11 kt METAR LFKJ 141100Z AUTO 22011KT CAVOK 30/19 Q1012 NOSIG
12:30
V
30 °C 10 km+ - 220° 220° 10 kt METAR LFKJ 141030Z AUTO 22010KT CAVOK 30/19 Q1012 NOSIG
12:00
V
29 °C 10 km+ - 220° 220° 9 kt METAR LFKJ 141000Z AUTO 22009KT CAVOK 29/19 Q1012 NOSIG
11:30
V
28 °C 10 km+ - 240° 240° 7 kt METAR LFKJ 140930Z AUTO 24007KT CAVOK 28/19 Q1012 NOSIG
11:00
V
27 °C 10 km+ - 240° 240° 6 kt METAR LFKJ 140900Z AUTO 24006KT CAVOK 27/19 Q1012 NOSIG
10:30
V
27 °C 10 km+ - 230° 230° 5 kt METAR LFKJ 140830Z AUTO 23005KT 200V260 CAVOK 27/18 Q1012 NOSIG
10:00
V
27 °C 10 km+ - 240° 240° 4 kt METAR LFKJ 140800Z AUTO 24004KT CAVOK 27/18 Q1012 NOSIG
09:30
V
27 °C 10 km+ - 240° 240° 3 kt METAR LFKJ 140730Z AUTO 24003KT 210V280 CAVOK 27/17 Q1012 NOSIG
09:00
V
27 °C 10 km+ - Var Var 1 kt METAR LFKJ 140700Z AUTO VRB01KT CAVOK 27/16 Q1012 BECMG 24012KT
08:30
V
25 °C 10 km+ - 040° 040° 3 kt METAR LFKJ 140630Z AUTO 04003KT 360V070 CAVOK 25/14 Q1012 BECMG 24012KT
08:00
V
22 °C 10 km+ - Var Var 3 kt METAR LFKJ 140600Z AUTO VRB03KT CAVOK 22/14 Q1012 NOSIG
07:30
V
21 °C 10 km+ - 040° 040° 4 kt METAR LFKJ 140530Z AUTO 04004KT CAVOK 21/15 Q1012 NOSIG
07:00
V
20 °C 10 km+ - Var Var 3 kt METAR LFKJ 140500Z AUTO VRB03KT CAVOK 20/14 Q1012 NOSIG
06:30
V
19 °C 10 km+ - 090° 090° 3 kt METAR LFKJ 140430Z AUTO 09003KT 060V120 CAVOK 19/14 Q1011 NOSIG
06:00
V
19 °C 10 km+ - 060° 060° 3 kt METAR LFKJ 140400Z AUTO 06003KT CAVOK 19/14 Q1011 NOSIG
05:30
V
19 °C 10 km+ - Var Var 2 kt METAR LFKJ 140330Z AUTO VRB02KT CAVOK 19/15 Q1011 NOSIG
05:00
V
19 °C 10 km+ - 060° 060° 3 kt METAR LFKJ 140300Z AUTO 06003KT CAVOK 19/15 Q1011 NOSIG
04:30
V
19 °C 10 km+ - 050° 050° 5 kt METAR LFKJ 140230Z AUTO 05005KT CAVOK 19/15 Q1011 NOSIG
04:00
V
20 °C 10 km+ - 060° 060° 3 kt METAR LFKJ 140200Z AUTO 06003KT CAVOK 20/15 Q1011 NOSIG
03:30
V
20 °C 10 km+ - 070° 070° 4 kt METAR LFKJ 140130Z AUTO 07004KT CAVOK 20/15 Q1011 NOSIG
03:00
V
20 °C 10 km+ - 050° 050° 5 kt METAR LFKJ 140100Z AUTO 05005KT CAVOK 20/15 Q1011 NOSIG
02:30
V
20 °C 10 km+ - 050° 050° 5 kt METAR LFKJ 140030Z AUTO 05005KT CAVOK 20/15 Q1012 NOSIG
02:00
V
20 °C 10 km+ - 060° 060° 5 kt METAR LFKJ 140000Z AUTO 06005KT CAVOK 20/16 Q1012 NOSIG
01:30
V
20 °C 10 km+ - 060° 060° 6 kt METAR LFKJ 132330Z AUTO 06006KT CAVOK 20/16 Q1012 NOSIG
01:00
V
21 °C 10 km+ - 050° 050° 5 kt METAR LFKJ 132300Z AUTO 05005KT CAVOK 21/16 Q1012 NOSIG
00:30
V
22 °C 10 km+ - 050° 050° 3 kt METAR LFKJ 132230Z AUTO 05003KT CAVOK 22/16 Q1012 NOSIG
00:00
V
22 °C 10 km+ - 080° 080° 3 kt METAR LFKJ 132200Z AUTO 08003KT CAVOK 22/16 Q1012 NOSIG

July 13, 2024

Time Code Weather Temp. Visibility Ceiling Wind METAR/SPECI
23:30
V
22 °C 10 km+ - 060° 060° 4 kt METAR LFKJ 132130Z AUTO 06004KT CAVOK 22/17 Q1012 NOSIG
23:00
V
22 °C 10 km+ - 050° 050° 5 kt METAR LFKJ 132100Z AUTO 05005KT CAVOK 22/16 Q1012 NOSIG
22:30
V
24 °C 10 km+ - Var Var 3 kt METAR LFKJ 132030Z AUTO VRB03KT CAVOK 24/16 Q1012 NOSIG
22:00
V
25 °C 10 km+ - Var Var 3 kt METAR LFKJ 132000Z AUTO VRB03KT CAVOK 25/16 Q1012 NOSIG
21:30
V
25 °C 10 km+ - 160° 160° 3 kt METAR LFKJ 131930Z AUTO 16003KT 130V200 CAVOK 25/17 Q1012 NOSIG
21:00
V
25 °C 10 km+ - 160° 160° 6 kt METAR LFKJ 131900Z AUTO 16006KT 130V190 CAVOK 25/18 Q1011 NOSIG
20:30
V
26 °C 10 km+ - 170° 170° 7 kt METAR LFKJ 131830Z AUTO 17007KT CAVOK 26/18 Q1011 NOSIG
20:00
V
27 °C 10 km+ - 180° 180° 9 kt METAR LFKJ 131800Z AUTO 18009KT CAVOK 27/18 Q1011 NOSIG
19:30
V
28 °C 10 km+ - 180° 180° 10 kt METAR LFKJ 131730Z AUTO 18010KT CAVOK 28/18 Q1011 BECMG 05005KT
19:00
V
28 °C 10 km+ - 180° 180° 11 kt METAR LFKJ 131700Z AUTO 18011KT CAVOK 28/18 Q1011 BECMG 05005KT
18:30
V
29 °C 10 km+ - 180° 180° 11 kt METAR LFKJ 131630Z AUTO 18011KT CAVOK 29/18 Q1011 BECMG 05005KT
18:00
V
29 °C 10 km+ - 180° 180° 10 kt METAR LFKJ 131600Z AUTO 18010KT CAVOK 29/19 Q1011 NOSIG
17:30
V
31 °C 10 km+ - 190° 190° 11 kt METAR LFKJ 131530Z AUTO 19011KT CAVOK 31/18 Q1011 NOSIG
17:00
V
30 °C 10 km+ - 190° 190° 11 kt METAR LFKJ 131500Z AUTO 19011KT CAVOK 30/18 Q1011 NOSIG
16:30
V
30 °C 10 km+ - 200° 200° 11 kt METAR LFKJ 131430Z AUTO 20011KT CAVOK 30/20 Q1011 NOSIG
16:00
V
30 °C 10 km+ - 200° 200° 12 kt METAR LFKJ 131400Z AUTO 20012KT CAVOK 30/20 Q1011 NOSIG
15:30
V
30 °C 10 km+ - 190° 190° 13 kt METAR LFKJ 131330Z AUTO 19013KT CAVOK 30/21 Q1011 NOSIG
15:00
V
30 °C 10 km+ - 180° 180° 12 kt METAR LFKJ 131300Z AUTO 18012KT CAVOK 30/21 Q1011 NOSIG
14:30
V
30 °C 10 km+ - 170° 170° 12 kt METAR LFKJ 131230Z AUTO 17012KT CAVOK 30/22 Q1011 BECMG 23012KT
14:00
V
30 °C 10 km+ - 200° 200° 13 kt METAR LFKJ 131200Z AUTO 20013KT CAVOK 30/22 Q1011 NOSIG
13:30
V
30 °C 10 km+ - 210° 210° 12 kt METAR LFKJ 131130Z AUTO 21012KT CAVOK 30/23 Q1011 NOSIG
13:00
V
29 °C 10 km+ - 220° 220° 12 kt METAR LFKJ 131100Z AUTO 22012KT CAVOK 29/22 Q1011 NOSIG
12:30
V
29 °C 10 km+ - 230° 230° 12 kt METAR LFKJ 131030Z AUTO 23012KT CAVOK 29/22 Q1011 NOSIG
12:00
V
29 °C 10 km+ - 220° 220° 9 kt METAR LFKJ 131000Z AUTO 22009KT CAVOK 29/22 Q1011 NOSIG
11:30
V
28 °C 10 km+ - 240° 240° 8 kt METAR LFKJ 130930Z AUTO 24008KT CAVOK 28/22 Q1011 NOSIG
11:00
V
28 °C 10 km+ - 230° 230° 9 kt METAR LFKJ 130900Z AUTO 23009KT CAVOK 28/22 Q1011 NOSIG
10:30
V
27 °C 10 km+ - 240° 240° 6 kt METAR LFKJ 130830Z AUTO 24006KT 210V280 CAVOK 27/21 Q1011 NOSIG
10:00
V
27 °C 10 km+ - 230° 230° 5 kt METAR LFKJ 130800Z AUTO 23005KT CAVOK 27/21 Q1011 NOSIG
09:30
V
27 °C 10 km+ - 240° 240° 3 kt METAR LFKJ 130730Z AUTO 24003KT 190V280 CAVOK 27/21 Q1011 NOSIG
09:00
V
26 °C 10 km+ - Var Var 3 kt METAR LFKJ 130700Z AUTO VRB03KT CAVOK 26/19 Q1012 NOSIG
08:30
V
26 °C 10 km+ - Var Var 2 kt METAR LFKJ 130630Z AUTO VRB02KT 9999 FEW013 26/19 Q1011 NOSIG
08:00
V
24 °C 10 km+ - 030° 030° 4 kt METAR LFKJ 130600Z AUTO 03004KT 360V060 9999 FEW013 24/18 Q1011 NOSIG
07:30
V
22 °C 10 km+ - 030° 030° 5 kt METAR LFKJ 130530Z AUTO 03005KT CAVOK 22/18 Q1011 NOSIG
07:00
M
21 °C 10 km+ 1,900 ft 050° 050° 5 kt METAR LFKJ 130500Z AUTO 05005KT 9999 SCT013 BKN019 21/17 Q1011 TEMPO BKN010
06:30
V
21 °C 10 km+ - 030° 030° 5 kt METAR LFKJ 130430Z AUTO 03005KT 9999 FEW011 21/17 Q1011 TEMPO BKN010
06:00
V
20 °C 10 km+ - 040° 040° 6 kt METAR LFKJ 130400Z AUTO 04006KT CAVOK 20/17 Q1011 TEMPO BKN010
05:30
V
21 °C 10 km+ - 040° 040° 6 kt METAR LFKJ 130330Z AUTO 04006KT CAVOK 21/17 Q1010 TEMPO BKN010
05:00
V
21 °C 10 km+ - 040° 040° 7 kt METAR LFKJ 130300Z AUTO 04007KT 9999 FEW012 21/17 Q1010 TEMPO BKN010
04:30
V
21 °C 10 km+ - 050° 050° 6 kt METAR LFKJ 130230Z AUTO 05006KT 9999 SCT014 SCT022 21/17 Q1010 TEMPO BKN010
04:00
V
21 °C 10 km+ - 040° 040° 6 kt METAR LFKJ 130200Z AUTO 04006KT 9999 SCT013 21/17 Q1010 TEMPO BKN010
03:30
V
21 °C 10 km+ - 050° 050° 6 kt METAR LFKJ 130130Z AUTO 05006KT CAVOK 21/17 Q1010 TEMPO BKN010
03:00
V
21 °C 10 km+ - 060° 060° 5 kt METAR LFKJ 130100Z AUTO 06005KT 9999 FEW015 21/18 Q1011 TEMPO BKN010
02:30
V
22 °C 10 km+ 13,000 ft 040° 040° 3 kt METAR LFKJ 130030Z AUTO 04003KT 9999 SCT013 BKN130 22/18 Q1011 TEMPO BKN010
02:00
V
22 °C 10 km+ - 050° 050° 4 kt METAR LFKJ 130000Z AUTO 05004KT CAVOK 22/18 Q1011 TEMPO BKN010
01:30
V
22 °C 10 km+ - Var Var 2 kt METAR LFKJ 122330Z AUTO VRB02KT CAVOK 22/18 Q1011 TEMPO BKN010
01:00
V
23 °C 10 km+ - 100° 100° 3 kt METAR LFKJ 122300Z AUTO 10003KT CAVOK 23/18 Q1011 TEMPO BKN010
00:30
V
23 °C 10 km+ - 020° 020° 4 kt METAR LFKJ 122230Z AUTO 02004KT CAVOK 23/18 Q1011 TEMPO BKN010
00:00
V
23 °C 10 km+ - 040° 040° 5 kt METAR LFKJ 122200Z AUTO 04005KT CAVOK 23/18 Q1011 NOSIG

July 12, 2024

Time Code Weather Temp. Visibility Ceiling Wind METAR/SPECI
23:30
V
24 °C 10 km+ - 040° 040° 3 kt METAR LFKJ 122130Z AUTO 04003KT CAVOK 24/18 Q1011 NOSIG
23:00
V
24 °C 10 km+ - 100° 100° 3 kt METAR LFKJ 122100Z AUTO 10003KT CAVOK 24/18 Q1011 NOSIG
22:30
V
25 °C 10 km+ - Var Var 3 kt METAR LFKJ 122030Z AUTO VRB03KT CAVOK 25/18 Q1011 NOSIG
22:00
V
25 °C 10 km+ - 050° 050° 5 kt METAR LFKJ 122000Z AUTO 05005KT CAVOK 25/18 Q1011 NOSIG
21:30
V
26 °C 10 km+ - 360° 360° 0 kt METAR LFKJ 121930Z AUTO 00000KT CAVOK 26/18 Q1011 NOSIG
21:00
V
26 °C 10 km+ - Var Var 2 kt METAR LFKJ 121900Z AUTO VRB02KT CAVOK 26/18 Q1011 NOSIG
20:30
V
26 °C 10 km+ - 170° 170° 6 kt METAR LFKJ 121830Z AUTO 17006KT CAVOK 26/20 Q1011 NOSIG
20:00
V
27 °C 10 km+ - 180° 180° 9 kt METAR LFKJ 121800Z AUTO 18009KT CAVOK 27/22 Q1011 NOSIG
19:30
V
28 °C 10 km+ - 200° 200° 9 kt METAR LFKJ 121730Z AUTO 20009KT CAVOK 28/22 Q1010 NOSIG
19:00
V
28 °C 10 km+ - 190° 190° 9 kt METAR LFKJ 121700Z AUTO 19009KT CAVOK 28/22 Q1010 NOSIG
18:30
V
29 °C 10 km+ - 190° 190° 10 kt METAR LFKJ 121630Z AUTO 19010KT CAVOK 29/23 Q1010 NOSIG
18:00
V
29 °C 10 km+ - 200° 200° 9 kt METAR LFKJ 121600Z AUTO 20009KT CAVOK 29/23 Q1011 NOSIG
17:30
V
29 °C 10 km+ - 200° 200° 10 kt METAR LFKJ 121530Z AUTO 20010KT CAVOK 29/23 Q1011 NOSIG
17:00
V
29 °C 10 km+ - 200° 200° 11 kt METAR LFKJ 121500Z AUTO 20011KT CAVOK 29/23 Q1011 NOSIG
16:30
V
30 °C 10 km+ - 190° 190° 11 kt METAR LFKJ 121430Z AUTO 19011KT CAVOK 30/23 Q1011 NOSIG
16:00
V
30 °C 10 km+ - 210° 210° 12 kt METAR LFKJ 121400Z AUTO 21012KT CAVOK 30/23 Q1012 NOSIG
15:30
V
30 °C 10 km+ - 220° 220° 10 kt METAR LFKJ 121330Z AUTO 22010KT CAVOK 30/23 Q1012 NOSIG
15:00
V
30 °C 10 km+ - 210° 210° 8 kt METAR LFKJ 121300Z AUTO 21008KT CAVOK 30/22 Q1012 NOSIG
14:30
V
30 °C 10 km+ - 210° 210° 8 kt METAR LFKJ 121230Z AUTO 21008KT CAVOK 30/22 Q1012 NOSIG
14:00
V
29 °C 10 km+ - 210° 210° 9 kt METAR LFKJ 121200Z AUTO 21009KT CAVOK 29/23 Q1012 NOSIG
13:30
V
29 °C 10 km+ - 230° 230° 10 kt METAR LFKJ 121130Z AUTO 23010KT CAVOK 29/23 Q1013 NOSIG
13:00
V
29 °C 10 km+ - 220° 220° 10 kt METAR LFKJ 121100Z AUTO 22010KT CAVOK 29/22 Q1013 NOSIG
12:30
V
28 °C 10 km+ - 240° 240° 9 kt METAR LFKJ 121030Z AUTO 24009KT CAVOK 28/22 Q1013 NOSIG
12:00
V
28 °C 10 km+ - 220° 220° 8 kt METAR LFKJ 121000Z AUTO 22008KT CAVOK 28/22 Q1013 NOSIG
11:30
V
28 °C 10 km+ - 220° 220° 10 kt METAR LFKJ 120930Z AUTO 22010KT CAVOK 28/22 Q1013 NOSIG
11:00
V
27 °C 10 km+ - 230° 230° 10 kt METAR LFKJ 120900Z AUTO 23010KT CAVOK 27/21 Q1013 NOSIG
10:30
V
27 °C 10 km+ - 240° 240° 8 kt METAR LFKJ 120830Z AUTO 24008KT CAVOK 27/21 Q1012 NOSIG
10:00
V
27 °C 10 km+ - 230° 230° 6 kt METAR LFKJ 120800Z AUTO 23006KT 190V280 CAVOK 27/18 Q1013 NOSIG
09:30
V
27 °C 10 km+ - 230° 230° 5 kt METAR LFKJ 120730Z AUTO 23005KT CAVOK 27/18 Q1013 NOSIG
09:00
V
27 °C 10 km+ - 210° 210° 4 kt METAR LFKJ 120700Z AUTO 21004KT CAVOK 27/17 Q1013 NOSIG
08:30
V
26 °C 10 km+ - 360° 360° 0 kt METAR LFKJ 120630Z AUTO 00000KT CAVOK 26/16 Q1013 BECMG 21010KT
08:00
V
23 °C 10 km+ - 050° 050° 4 kt METAR LFKJ 120600Z AUTO 05004KT CAVOK 23/16 Q1013 BECMG 21010KT
Report a change